createdAt,value
2023-03-12T00:01:36.437Z,15.04
2023-03-12T00:04:39.312Z,15.12
2023-03-12T00:07:41.413Z,15.19
2023-03-12T00:10:43.427Z,15.28
2023-03-12T00:13:48.916Z,14.84
2023-03-12T00:16:51.215Z,14.66
2023-03-12T00:19:53.864Z,14.46
2023-03-12T00:22:56.238Z,14.66
2023-03-12T00:26:17.829Z,14.57
2023-03-12T00:29:20.430Z,14.47
2023-03-12T00:32:22.578Z,14.56
2023-03-12T00:35:30.344Z,14.54
2023-03-12T00:38:32.865Z,14.49
2023-03-12T00:41:35.044Z,14.56
2023-03-12T00:44:37.268Z,14.47
2023-03-12T00:47:41.820Z,14.40
2023-03-12T00:50:44.216Z,14.49
2023-03-12T00:53:48.438Z,14.67
2023-03-12T00:56:50.784Z,14.65
2023-03-12T00:59:52.914Z,14.68
2023-03-12T01:02:56.927Z,14.71
2023-03-12T01:06:01.936Z,14.81
2023-03-12T01:09:05.972Z,14.53
2023-03-12T01:12:08.422Z,14.77
2023-03-12T01:15:14.084Z,14.64
2023-03-12T01:18:16.612Z,14.46
2023-03-12T01:21:18.749Z,14.44
2023-03-12T01:24:21.006Z,14.33
2023-03-12T01:27:23.290Z,14.42
2023-03-12T01:30:25.734Z,14.37
2023-03-12T01:33:27.922Z,14.32
2023-03-12T01:36:31.056Z,14.46
2023-03-12T01:39:33.149Z,14.44
2023-03-12T01:42:35.195Z,14.44
2023-03-12T01:46:24.524Z,14.44
2023-03-12T01:49:31.791Z,14.40
2023-03-12T01:52:37.853Z,14.25
2023-03-12T01:55:41.845Z,14.14
2023-03-12T01:58:50.826Z,14.21
2023-03-12T02:01:53.193Z,14.37
2023-03-12T02:05:17.775Z,14.52
2023-03-12T02:08:19.958Z,14.33
2023-03-12T02:11:22.039Z,14.18
2023-03-12T02:14:24.354Z,14.18
2023-03-12T02:17:26.835Z,14.18
2023-03-12T02:21:10.098Z,14.18
2023-03-12T02:24:24.827Z,14.10
2023-03-12T02:27:27.011Z,13.88
2023-03-12T02:30:30.772Z,13.87
2023-03-12T02:33:32.930Z,14.12
2023-03-12T02:36:35.395Z,14.38
2023-03-12T02:39:41.524Z,14.24
2023-03-12T02:42:44.957Z,14.04
2023-03-12T02:45:47.158Z,13.91
2023-03-12T02:48:49.852Z,13.85
2023-03-12T02:51:52.522Z,13.85
2023-03-12T02:54:54.642Z,13.77
2023-03-12T02:57:56.876Z,13.69
2023-03-12T03:00:59.102Z,13.96
2023-03-12T03:04:02.895Z,13.92
2023-03-12T03:07:05.244Z,13.80
2023-03-12T03:10:08.123Z,13.88
2023-03-12T03:13:10.260Z,14.05
2023-03-12T03:16:14.027Z,14.06
2023-03-12T03:19:16.492Z,14.04
2023-03-12T03:22:19.800Z,14.08
2023-03-12T03:25:23.385Z,14.00
2023-03-12T03:28:27.672Z,14.19
2023-03-12T03:31:30.722Z,13.99
2023-03-12T03:34:33.725Z,13.83
2023-03-12T03:37:35.964Z,13.68
2023-03-12T03:40:38.172Z,13.74
2023-03-12T03:43:40.358Z,13.50
2023-03-12T03:46:42.533Z,13.54
2023-03-12T03:49:46.530Z,13.48
2023-03-12T03:52:49.931Z,13.68
2023-03-12T03:55:52.018Z,13.84
2023-03-12T03:58:54.443Z,13.63
2023-03-12T04:01:57.385Z,13.28
2023-03-12T04:05:01.126Z,13.58
2023-03-12T04:08:03.717Z,13.74
2023-03-12T04:11:19.071Z,13.79
2023-03-12T04:14:21.253Z,13.56
2023-03-12T04:17:23.564Z,13.70
2023-03-12T04:20:25.671Z,13.75
2023-03-12T04:23:27.975Z,13.72
2023-03-12T04:26:30.945Z,13.55
2023-03-12T04:29:33.475Z,13.51
2023-03-12T04:32:35.798Z,13.33
2023-03-12T04:35:38.230Z,13.41
2023-03-12T04:38:40.462Z,13.44
2023-03-12T04:41:43.147Z,13.56
2023-03-12T04:44:52.613Z,13.38
2023-03-12T04:47:55.098Z,13.30
2023-03-12T04:50:57.385Z,13.35
2023-03-12T04:54:00.905Z,13.28
2023-03-12T04:57:03.209Z,13.52
2023-03-12T05:00:11.189Z,13.71
2023-03-12T05:03:13.535Z,13.58
2023-03-12T05:06:15.593Z,13.49
2023-03-12T05:09:18.135Z,13.61
2023-03-12T05:12:20.320Z,13.49
2023-03-12T05:15:22.698Z,13.47
2023-03-12T05:18:26.562Z,13.50
2023-03-12T05:21:30.564Z,13.39
2023-03-12T05:24:32.906Z,13.43
2023-03-12T05:27:36.776Z,14.47
2023-03-12T05:30:40.415Z,15.35
2023-03-12T05:33:43.668Z,15.82
2023-03-12T05:36:46.103Z,16.48
2023-03-12T05:39:54.252Z,16.35
2023-03-12T05:42:56.801Z,16.73
2023-03-12T05:46:04.106Z,16.75
2023-03-12T05:49:07.721Z,17.06
2023-03-12T05:52:10.528Z,16.83
2023-03-12T05:55:12.697Z,17.73
2023-03-12T05:58:14.762Z,17.46
2023-03-12T06:01:24.120Z,16.98
2023-03-12T06:04:27.299Z,17.00
2023-03-12T06:07:29.497Z,16.99
2023-03-12T06:10:31.879Z,17.23
2023-03-12T06:13:34.292Z,17.18
2023-03-12T06:16:37.264Z,16.89
2023-03-12T06:19:39.619Z,16.69
2023-03-12T06:22:42.736Z,16.56
2023-03-12T06:25:45.456Z,16.74
2023-03-12T06:28:49.139Z,17.98
2023-03-12T06:31:52.458Z,18.85
2023-03-12T06:34:54.546Z,19.40
2023-03-12T06:37:56.654Z,19.58
2023-03-12T06:41:04.118Z,18.38
2023-03-12T06:44:06.647Z,17.48
2023-03-12T06:47:09.927Z,17.14
2023-03-12T06:50:12.120Z,16.69
2023-03-12T06:53:14.181Z,16.21
2023-03-12T06:56:16.199Z,16.25
2023-03-12T06:59:18.620Z,15.97
2023-03-12T07:02:20.815Z,15.86
2023-03-12T07:05:24.116Z,15.71
2023-03-12T07:08:31.042Z,15.24
2023-03-12T07:11:33.086Z,15.28
2023-03-12T07:14:35.085Z,15.20
2023-03-12T07:17:37.199Z,14.96
2023-03-12T07:20:41.542Z,14.95
2023-03-12T07:23:43.569Z,15.09
2023-03-12T07:26:46.190Z,14.72
2023-03-12T07:29:48.589Z,14.67
2023-03-12T07:32:50.785Z,14.83
2023-03-12T07:35:53.062Z,15.23
2023-03-12T07:38:55.667Z,15.31
2023-03-12T07:41:57.784Z,15.46
2023-03-12T07:45:00.309Z,15.85
2023-03-12T07:48:02.357Z,15.57
2023-03-12T07:51:05.190Z,15.52
2023-03-12T07:54:07.232Z,15.17
2023-03-12T07:57:09.401Z,14.91
2023-03-12T08:00:12.400Z,14.56
2023-03-12T08:03:14.847Z,14.64
2023-03-12T08:06:17.063Z,14.92
2023-03-12T08:09:19.128Z,15.14
2023-03-12T08:12:21.120Z,15.68
2023-03-12T08:15:25.517Z,15.54
2023-03-12T08:18:27.919Z,15.48
2023-03-12T08:21:30.109Z,15.64
2023-03-12T08:24:32.152Z,15.98
2023-03-12T08:27:34.233Z,16.19
2023-03-12T08:30:36.456Z,16.11
2023-03-12T08:33:41.286Z,16.19
2023-03-12T08:36:43.259Z,16.24
2023-03-12T08:39:45.349Z,16.35
2023-03-12T08:42:47.449Z,16.13
2023-03-12T08:46:00.809Z,16.12
2023-03-12T08:49:02.901Z,16.21
2023-03-12T08:52:05.445Z,16.06
2023-03-12T08:55:08.113Z,16.13
2023-03-12T08:58:10.152Z,16.30
2023-03-12T09:01:13.802Z,16.43
2023-03-12T09:04:17.133Z,16.31
2023-03-12T09:07:19.229Z,16.37
2023-03-12T09:10:21.341Z,16.53
2023-03-12T09:13:23.426Z,16.53
2023-03-12T09:16:25.505Z,16.50
2023-03-12T09:19:27.532Z,16.63
2023-03-12T09:22:30.651Z,16.34
2023-03-12T09:25:33.377Z,16.51
2023-03-12T09:28:35.458Z,16.59
2023-03-12T09:31:37.568Z,16.42
2023-03-12T09:34:39.663Z,16.26
2023-03-12T09:37:41.983Z,16.29
2023-03-12T09:40:47.745Z,16.39
2023-03-12T09:43:53.066Z,15.99
2023-03-12T09:47:01.310Z,16.12
2023-03-12T09:50:17.157Z,16.23
2023-03-12T09:53:28.491Z,16.39
2023-03-12T09:56:30.558Z,16.19
2023-03-12T09:59:37.147Z,15.99
2023-03-12T10:02:51.765Z,16.23
2023-03-12T10:06:29.850Z,16.05
2023-03-12T10:09:37.767Z,15.97
2023-03-12T10:13:04.554Z,16.18
2023-03-12T10:16:49.793Z,16.48
2023-03-12T10:20:16.580Z,16.26
2023-03-12T10:23:37.198Z,15.77
2023-03-12T10:26:44.206Z,15.92
2023-03-12T10:29:51.000Z,16.12
2023-03-12T10:32:59.356Z,16.05
2023-03-12T10:36:01.672Z,16.14
2023-03-12T10:39:04.646Z,16.27
2023-03-12T10:42:16.615Z,16.14
2023-03-12T10:46:04.539Z,16.16
2023-03-12T10:49:22.009Z,16.15
2023-03-12T10:52:24.136Z,16.24
2023-03-12T10:55:29.800Z,16.79
2023-03-12T10:58:43.968Z,17.23
2023-03-12T11:01:50.234Z,17.56
2023-03-12T11:04:55.509Z,17.68
2023-03-12T11:08:00.581Z,17.55
2023-03-12T11:11:05.479Z,17.77
2023-03-12T11:14:16.412Z,17.37
2023-03-12T11:17:27.829Z,17.73
2023-03-12T11:20:30.980Z,18.60
2023-03-12T11:23:33.754Z,18.65
2023-03-12T11:27:14.403Z,18.61
2023-03-12T11:30:40.831Z,18.22
2023-03-12T11:33:42.991Z,18.17
2023-03-12T11:36:47.980Z,18.04
2023-03-12T11:40:10.166Z,18.04
2023-03-12T11:44:09.166Z,17.52
2023-03-12T11:47:14.200Z,17.28
2023-03-12T11:50:45.888Z,17.35
2023-03-12T11:54:06.620Z,17.45
2023-03-12T11:57:15.549Z,17.42
2023-03-12T12:00:35.101Z,17.14
2023-03-12T12:03:49.114Z,17.24
2023-03-12T12:07:05.294Z,17.22
2023-03-12T12:10:30.599Z,17.07
2023-03-12T12:13:46.830Z,16.79
2023-03-12T12:17:01.127Z,16.97
2023-03-12T12:20:29.052Z,16.92
2023-03-12T12:24:17.699Z,17.16
2023-03-12T12:27:27.524Z,17.39
2023-03-12T13:13:20.972Z,16.73
2023-03-12T13:16:40.206Z,16.94
2023-03-12T13:19:44.953Z,16.91
2023-03-12T13:23:05.164Z,16.57
2023-03-12T13:26:11.995Z,16.50
2023-03-12T13:29:19.963Z,17.12
2023-03-12T13:32:34.637Z,17.50
2023-03-12T13:35:39.538Z,17.98
2023-03-12T13:38:53.783Z,18.64
2023-03-12T13:41:57.042Z,19.00
2023-03-12T13:45:22.233Z,19.51
2023-03-12T13:48:25.571Z,19.59
2023-03-12T13:51:28.310Z,19.64
2023-03-12T13:54:34.555Z,19.75
2023-03-12T13:57:50.518Z,19.67
2023-03-12T14:01:01.308Z,19.52
2023-03-12T14:04:12.642Z,19.37
2023-03-12T14:07:30.643Z,19.34
2023-03-12T14:10:41.896Z,19.38
2023-03-12T14:13:51.355Z,19.32
2023-03-12T14:17:01.575Z,19.37
2023-03-12T14:20:26.828Z,19.11
2023-03-12T14:23:35.122Z,19.05
2023-03-12T14:26:37.408Z,19.00
2023-03-12T14:29:43.966Z,18.83
2023-03-12T14:32:48.320Z,18.70
2023-03-12T14:35:56.646Z,18.70
2023-03-12T14:39:10.505Z,18.63
2023-03-12T14:42:31.989Z,18.32
2023-03-12T14:45:40.618Z,18.23
2023-03-12T14:48:43.017Z,18.23
2023-03-12T14:51:45.172Z,18.14
2023-03-12T14:54:56.429Z,17.92
2023-03-12T14:58:17.354Z,17.97
2023-03-12T15:01:30.128Z,17.90
2023-03-12T15:04:34.900Z,17.85
2023-03-12T15:07:39.747Z,17.81
2023-03-12T15:10:51.960Z,17.71
2023-03-12T15:13:56.000Z,17.63
2023-03-12T15:17:00.402Z,17.60
2023-03-12T15:20:10.701Z,17.61
2023-03-12T15:23:14.285Z,17.66
2023-03-12T15:26:29.082Z,17.52
2023-03-12T15:29:31.224Z,17.52
2023-03-12T15:32:33.571Z,17.45
2023-03-12T15:35:39.601Z,17.41
2023-03-12T15:39:15.619Z,17.37
2023-03-12T15:42:21.790Z,17.93
2023-03-12T15:45:46.020Z,18.28
2023-03-12T15:48:53.903Z,18.38
2023-03-12T15:52:02.257Z,18.35
2023-03-12T15:55:07.310Z,18.13
2023-03-12T15:58:41.004Z,18.62
2023-03-12T16:01:53.033Z,18.64
2023-03-12T16:04:55.296Z,18.65
2023-03-12T16:07:59.347Z,18.62
2023-03-12T16:11:02.080Z,18.55
2023-03-12T16:14:10.890Z,18.41
2023-03-12T16:17:17.944Z,18.38
2023-03-12T16:20:20.196Z,18.37
2023-03-12T16:23:23.206Z,18.35
2023-03-12T16:26:25.215Z,18.25
2023-03-12T16:29:35.940Z,18.09
2023-03-12T16:32:38.467Z,18.04
2023-03-12T16:35:40.746Z,18.11
2023-03-12T16:38:44.204Z,18.10
2023-03-12T16:41:47.179Z,18.25
2023-03-12T16:44:49.278Z,17.96
2023-03-12T16:47:58.032Z,17.82
2023-03-12T16:51:03.569Z,17.80
2023-03-12T16:54:11.417Z,17.60
2023-03-12T16:57:41.171Z,17.48
2023-03-12T17:00:43.984Z,17.27
2023-03-12T17:03:49.675Z,17.13
2023-03-12T17:06:51.910Z,17.08
2023-03-12T17:09:54.147Z,16.92
2023-03-12T17:12:56.835Z,16.95
2023-03-12T17:15:58.948Z,16.92
2023-03-12T17:19:01.118Z,16.82
2023-03-12T17:22:04.463Z,16.80
2023-03-12T17:25:07.828Z,16.75
2023-03-12T17:28:11.873Z,16.62
2023-03-12T17:31:16.929Z,16.36
2023-03-12T17:34:19.441Z,16.45
2023-03-12T17:37:23.725Z,16.35
2023-03-12T17:40:27.112Z,16.29
2023-03-12T17:43:29.649Z,16.43
2023-03-12T17:46:31.978Z,16.44
2023-03-12T17:49:34.200Z,16.48
2023-03-12T17:52:36.711Z,16.51
2023-03-12T17:55:38.697Z,16.37
2023-03-12T17:58:40.724Z,16.43
2023-03-12T18:01:42.966Z,16.26
2023-03-12T18:04:45.038Z,16.23
2023-03-12T18:07:48.519Z,16.20
2023-03-12T18:10:50.580Z,16.12
2023-03-12T18:13:53.439Z,16.08
2023-03-12T18:16:55.579Z,16.02
2023-03-12T18:19:57.662Z,15.50
2023-03-12T18:23:00.173Z,15.64
2023-03-12T18:26:04.733Z,15.53
2023-03-12T18:29:06.692Z,15.21
2023-03-12T18:32:09.463Z,15.23
2023-03-12T18:35:13.969Z,15.26
2023-03-12T18:38:16.187Z,15.22
2023-03-12T18:41:18.192Z,15.26
2023-03-12T18:44:20.290Z,15.44
2023-03-12T18:47:23.297Z,15.62
2023-03-12T18:50:25.644Z,15.82
2023-03-12T18:53:29.338Z,15.98
2023-03-12T18:56:31.434Z,15.68
2023-03-12T18:59:33.502Z,15.50
2023-03-12T19:02:35.609Z,15.21
2023-03-12T19:05:37.993Z,15.20
2023-03-12T19:08:40.535Z,15.14
2023-03-12T19:11:42.613Z,15.07
2023-03-12T19:14:44.672Z,15.03
2023-03-12T19:17:46.806Z,15.01
2023-03-12T19:20:48.980Z,14.75
2023-03-12T19:23:52.210Z,14.70
2023-03-12T19:26:54.351Z,14.54
2023-03-12T19:29:59.208Z,14.49
2023-03-12T19:33:01.332Z,14.42
2023-03-12T19:36:06.258Z,14.33
2023-03-12T19:39:15.198Z,14.29
2023-03-12T19:42:22.364Z,14.28
2023-03-12T19:45:24.620Z,14.18
2023-03-12T19:48:27.012Z,14.03
2023-03-12T19:51:29.471Z,14.11
2023-03-12T19:54:31.631Z,14.18
2023-03-12T19:57:34.403Z,14.13
2023-03-12T20:00:37.995Z,14.13
2023-03-12T20:03:45.040Z,14.12
2023-03-12T20:06:47.727Z,14.03
2023-03-12T20:09:50.222Z,14.04
2023-03-12T20:12:55.642Z,13.92
2023-03-12T20:15:57.863Z,13.84
2023-03-12T20:19:00.297Z,13.78
2023-03-12T20:22:02.489Z,13.61
2023-03-12T20:25:06.399Z,13.80
2023-03-12T20:28:10.942Z,13.80
2023-03-12T20:31:16.549Z,13.56
2023-03-12T20:34:18.732Z,13.57
2023-03-12T20:37:22.504Z,13.57
2023-03-12T20:40:24.625Z,13.60
2023-03-12T20:43:27.053Z,13.60
2023-03-12T20:46:29.237Z,13.56
2023-03-12T20:49:31.407Z,13.63
2023-03-12T20:52:33.958Z,13.53
2023-03-12T20:55:38.996Z,13.47
2023-03-12T20:58:46.125Z,13.37
2023-03-12T21:01:48.126Z,13.20
2023-03-12T21:04:53.015Z,13.27
2023-03-12T21:07:58.371Z,13.37
2023-03-12T21:11:00.627Z,13.34
2023-03-12T21:14:02.634Z,13.24
2023-03-12T21:17:04.935Z,13.37
2023-03-12T21:20:17.183Z,13.18
2023-03-12T21:23:19.982Z,13.22
2023-03-12T21:26:23.045Z,13.19
2023-03-12T21:29:25.262Z,13.23
2023-03-12T21:32:27.798Z,13.32
2023-03-12T21:35:30.062Z,13.25
2023-03-12T21:38:32.292Z,13.24
2023-03-12T21:41:34.291Z,13.27
2023-03-12T21:44:37.252Z,13.27
2023-03-12T21:47:41.720Z,13.26
2023-03-12T21:50:43.816Z,13.21
2023-03-12T21:53:45.961Z,13.11
2023-03-12T21:56:47.945Z,13.25
2023-03-12T21:59:50.012Z,13.24
2023-03-12T22:02:53.023Z,13.45
2023-03-12T22:05:55.343Z,13.56
2023-03-12T22:08:57.645Z,13.75
2023-03-12T22:12:01.675Z,13.63
2023-03-12T22:15:04.582Z,13.75
2023-03-12T22:18:06.715Z,13.78
2023-03-12T22:21:13.636Z,13.79
2023-03-12T22:24:15.748Z,13.53
2023-03-12T22:27:17.870Z,13.61
2023-03-12T22:30:20.148Z,13.54
2023-03-12T22:33:22.379Z,13.63
2023-03-12T22:36:24.624Z,13.71
2023-03-12T22:39:26.732Z,13.53
2023-03-12T22:42:28.801Z,13.63
2023-03-12T22:45:31.060Z,13.54
2023-03-12T22:48:33.333Z,13.65
2023-03-12T22:51:35.387Z,13.57
2023-03-12T22:54:37.466Z,13.57
2023-03-12T22:57:39.507Z,13.08
2023-03-12T23:00:41.636Z,12.79
2023-03-12T23:03:45.385Z,12.69
2023-03-12T23:06:47.371Z,12.79
2023-03-12T23:09:49.879Z,12.81
2023-03-12T23:12:51.803Z,12.77
2023-03-12T23:15:53.923Z,12.67
2023-03-12T23:18:56.708Z,12.61
2023-03-12T23:21:58.853Z,12.56
2023-03-12T23:25:01.006Z,12.48
2023-03-12T23:28:03.623Z,12.39
2023-03-12T23:31:07.700Z,12.46
2023-03-12T23:34:10.089Z,12.43
2023-03-12T23:37:12.301Z,12.41
2023-03-12T23:40:16.965Z,12.59
2023-03-12T23:43:19.354Z,12.82
2023-03-12T23:46:21.624Z,12.85
2023-03-12T23:49:23.710Z,12.81
2023-03-12T23:52:28.641Z,13.12
2023-03-12T23:55:30.928Z,12.88
2023-03-12T23:58:33.248Z,12.79
